sensor_id;sensor_type;location;lat;lon;timestamp;P1;durP1;ratioP1;P2;durP2;ratioP2
22628;SDS011;11481;53.694;9.910;2022-10-16T00:01:17;7.72;;;3.40;;
22628;SDS011;11481;53.694;9.910;2022-10-16T00:03:46;6.68;;;3.22;;
22628;SDS011;11481;53.694;9.910;2022-10-16T00:06:14;6.55;;;3.33;;
22628;SDS011;11481;53.694;9.910;2022-10-16T00:08:42;8.50;;;3.53;;
22628;SDS011;11481;53.694;9.910;2022-10-16T00:11:10;7.75;;;3.42;;
22628;SDS011;11481;53.694;9.910;2022-10-16T00:13:42;6.20;;;2.78;;
22628;SDS011;11481;53.694;9.910;2022-10-16T00:16:10;9.45;;;3.75;;
22628;SDS011;11481;53.694;9.910;2022-10-16T00:18:38;11.68;;;2.80;;
22628;SDS011;11481;53.694;9.910;2022-10-16T00:21:07;9.98;;;3.55;;
22628;SDS011;11481;53.694;9.910;2022-10-16T00:23:38;8.18;;;3.47;;
22628;SDS011;11481;53.694;9.910;2022-10-16T00:26:07;10.68;;;3.30;;
22628;SDS011;11481;53.694;9.910;2022-10-16T00:28:35;9.70;;;3.15;;
22628;SDS011;11481;53.694;9.910;2022-10-16T00:31:03;10.52;;;3.50;;
22628;SDS011;11481;53.694;9.910;2022-10-16T00:33:31;7.90;;;3.38;;
22628;SDS011;11481;53.694;9.910;2022-10-16T00:35:58;10.27;;;3.47;;
22628;SDS011;11481;53.694;9.910;2022-10-16T00:38:26;17.08;;;3.53;;
22628;SDS011;11481;53.694;9.910;2022-10-16T00:40:52;11.05;;;3.15;;
22628;SDS011;11481;53.694;9.910;2022-10-16T00:43:39;5.60;;;2.67;;
22628;SDS011;11481;53.694;9.910;2022-10-16T00:46:15;5.80;;;2.70;;
22628;SDS011;11481;53.694;9.910;2022-10-16T00:51:27;6.35;;;2.80;;
22628;SDS011;11481;53.694;9.910;2022-10-16T00:53:59;6.70;;;1.90;;
22628;SDS011;11481;53.694;9.910;2022-10-16T00:56:28;5.22;;;2.38;;
22628;SDS011;11481;53.694;9.910;2022-10-16T00:58:55;6.43;;;2.42;;
22628;SDS011;11481;53.694;9.910;2022-10-16T01:01:21;7.63;;;2.00;;
22628;SDS011;11481;53.694;9.910;2022-10-16T01:03:48;8.13;;;2.33;;
22628;SDS011;11481;53.694;9.910;2022-10-16T01:06:22;5.82;;;2.17;;
22628;SDS011;11481;53.694;9.910;2022-10-16T01:09:09;3.67;;;1.50;;
22628;SDS011;11481;53.694;9.910;2022-10-16T01:20:31;7.25;;;1.70;;
22628;SDS011;11481;53.694;9.910;2022-10-16T01:25:33;5.07;;;1.77;;
22628;SDS011;11481;53.694;9.910;2022-10-16T01:28:06;2.45;;;1.30;;
22628;SDS011;11481;53.694;9.910;2022-10-16T01:30:38;2.80;;;1.30;;
22628;SDS011;11481;53.694;9.910;2022-10-16T01:33:10;5.75;;;1.92;;
22628;SDS011;11481;53.694;9.910;2022-10-16T01:35:43;4.18;;;1.65;;
22628;SDS011;11481;53.694;9.910;2022-10-16T01:40:57;5.20;;;2.00;;
22628;SDS011;11481;53.694;9.910;2022-10-16T01:43:28;3.28;;;1.50;;
22628;SDS011;11481;53.694;9.910;2022-10-16T01:45:59;6.95;;;1.42;;
22628;SDS011;11481;53.694;9.910;2022-10-16T01:48:27;2.60;;;1.00;;
22628;SDS011;11481;53.694;9.910;2022-10-16T01:50:58;5.15;;;2.00;;
22628;SDS011;11481;53.694;9.910;2022-10-16T01:53:32;6.13;;;2.53;;
22628;SDS011;11481;53.694;9.910;2022-10-16T01:55:59;4.38;;;1.20;;
22628;SDS011;11481;53.694;9.910;2022-10-16T01:58:27;3.05;;;1.48;;
22628;SDS011;11481;53.694;9.910;2022-10-16T02:01:01;3.65;;;1.20;;
22628;SDS011;11481;53.694;9.910;2022-10-16T02:03:30;3.85;;;1.67;;
22628;SDS011;11481;53.694;9.910;2022-10-16T02:06:00;5.07;;;1.40;;
22628;SDS011;11481;53.694;9.910;2022-10-16T02:08:27;3.13;;;1.00;;
22628;SDS011;11481;53.694;9.910;2022-10-16T02:10:56;1.83;;;1.15;;
22628;SDS011;11481;53.694;9.910;2022-10-16T02:13:26;4.18;;;1.58;;
22628;SDS011;11481;53.694;9.910;2022-10-16T02:15:54;5.30;;;1.48;;
22628;SDS011;11481;53.694;9.910;2022-10-16T02:18:20;4.45;;;1.45;;
22628;SDS011;11481;53.694;9.910;2022-10-16T02:20:50;5.13;;;1.38;;
22628;SDS011;11481;53.694;9.910;2022-10-16T02:23:27;3.78;;;1.58;;
22628;SDS011;11481;53.694;9.910;2022-10-16T02:25:59;3.95;;;1.13;;
22628;SDS011;11481;53.694;9.910;2022-10-16T02:28:35;1.95;;;0.88;;
22628;SDS011;11481;53.694;9.910;2022-10-16T02:31:11;2.58;;;1.20;;
22628;SDS011;11481;53.694;9.910;2022-10-16T02:33:42;4.18;;;1.38;;
22628;SDS011;11481;53.694;9.910;2022-10-16T02:36:10;3.45;;;1.13;;
22628;SDS011;11481;53.694;9.910;2022-10-16T02:38:37;2.60;;;1.10;;
22628;SDS011;11481;53.694;9.910;2022-10-16T02:41:05;3.13;;;1.27;;
22628;SDS011;11481;53.694;9.910;2022-10-16T02:43:32;1.98;;;1.02;;
22628;SDS011;11481;53.694;9.910;2022-10-16T02:46:00;3.72;;;0.90;;
22628;SDS011;11481;53.694;9.910;2022-10-16T02:48:26;2.67;;;0.98;;
22628;SDS011;11481;53.694;9.910;2022-10-16T02:50:53;2.17;;;1.00;;
22628;SDS011;11481;53.694;9.910;2022-10-16T02:53:19;2.08;;;1.23;;
22628;SDS011;11481;53.694;9.910;2022-10-16T02:55:46;2.35;;;0.88;;
22628;SDS011;11481;53.694;9.910;2022-10-16T02:58:13;2.15;;;0.98;;
22628;SDS011;11481;53.694;9.910;2022-10-16T03:00:39;3.03;;;1.30;;
22628;SDS011;11481;53.694;9.910;2022-10-16T03:03:06;1.45;;;0.65;;
22628;SDS011;11481;53.694;9.910;2022-10-16T03:05:32;2.33;;;1.00;;
22628;SDS011;11481;53.694;9.910;2022-10-16T03:07:59;2.22;;;0.95;;
22628;SDS011;11481;53.694;9.910;2022-10-16T03:10:26;6.97;;;1.30;;
22628;SDS011;11481;53.694;9.910;2022-10-16T03:12:53;5.32;;;1.08;;
22628;SDS011;11481;53.694;9.910;2022-10-16T03:15:20;2.00;;;0.93;;
22628;SDS011;11481;53.694;9.910;2022-10-16T03:17:46;4.93;;;1.00;;
22628;SDS011;11481;53.694;9.910;2022-10-16T03:20:13;1.73;;;0.75;;
22628;SDS011;11481;53.694;9.910;2022-10-16T03:22:39;4.20;;;0.82;;
22628;SDS011;11481;53.694;9.910;2022-10-16T03:25:06;2.55;;;1.00;;
22628;SDS011;11481;53.694;9.910;2022-10-16T03:27:33;3.65;;;0.65;;
22628;SDS011;11481;53.694;9.910;2022-10-16T03:30:00;1.83;;;0.70;;
22628;SDS011;11481;53.694;9.910;2022-10-16T03:32:26;3.25;;;0.80;;
22628;SDS011;11481;53.694;9.910;2022-10-16T03:34:54;3.40;;;0.60;;
22628;SDS011;11481;53.694;9.910;2022-10-16T03:37:22;1.48;;;0.70;;
22628;SDS011;11481;53.694;9.910;2022-10-16T03:39:49;2.40;;;1.02;;
22628;SDS011;11481;53.694;9.910;2022-10-16T03:42:16;4.00;;;0.93;;
22628;SDS011;11481;53.694;9.910;2022-10-16T03:44:42;3.00;;;0.98;;
22628;SDS011;11481;53.694;9.910;2022-10-16T03:47:09;1.67;;;0.73;;
22628;SDS011;11481;53.694;9.910;2022-10-16T03:49:36;1.63;;;0.70;;
22628;SDS011;11481;53.694;9.910;2022-10-16T03:52:02;4.90;;;0.98;;
22628;SDS011;11481;53.694;9.910;2022-10-16T03:54:29;2.25;;;0.75;;
22628;SDS011;11481;53.694;9.910;2022-10-16T03:56:55;3.58;;;1.15;;
22628;SDS011;11481;53.694;9.910;2022-10-16T03:59:22;2.65;;;0.93;;
22628;SDS011;11481;53.694;9.910;2022-10-16T04:01:48;1.80;;;0.80;;
22628;SDS011;11481;53.694;9.910;2022-10-16T04:04:15;2.35;;;1.02;;
22628;SDS011;11481;53.694;9.910;2022-10-16T04:06:41;5.05;;;0.80;;
22628;SDS011;11481;53.694;9.910;2022-10-16T04:09:08;2.33;;;1.20;;
22628;SDS011;11481;53.694;9.910;2022-10-16T04:11:35;2.75;;;0.82;;
22628;SDS011;11481;53.694;9.910;2022-10-16T04:14:02;2.22;;;1.35;;
22628;SDS011;11481;53.694;9.910;2022-10-16T04:16:29;1.73;;;0.80;;
22628;SDS011;11481;53.694;9.910;2022-10-16T04:18:56;2.80;;;0.90;;
22628;SDS011;11481;53.694;9.910;2022-10-16T04:21:22;2.63;;;0.90;;
22628;SDS011;11481;53.694;9.910;2022-10-16T04:23:51;3.28;;;1.27;;
22628;SDS011;11481;53.694;9.910;2022-10-16T04:26:17;3.47;;;1.00;;
22628;SDS011;11481;53.694;9.910;2022-10-16T04:28:44;2.03;;;0.75;;
22628;SDS011;11481;53.694;9.910;2022-10-16T04:31:11;2.30;;;0.95;;
22628;SDS011;11481;53.694;9.910;2022-10-16T04:33:37;3.15;;;1.10;;
22628;SDS011;11481;53.694;9.910;2022-10-16T04:36:04;2.10;;;0.73;;
22628;SDS011;11481;53.694;9.910;2022-10-16T04:38:31;3.63;;;1.35;;
22628;SDS011;11481;53.694;9.910;2022-10-16T04:40:57;2.67;;;0.88;;
22628;SDS011;11481;53.694;9.910;2022-10-16T04:43:24;1.73;;;0.75;;
22628;SDS011;11481;53.694;9.910;2022-10-16T04:45:51;2.88;;;0.80;;
22628;SDS011;11481;53.694;9.910;2022-10-16T04:48:18;2.90;;;1.20;;
22628;SDS011;11481;53.694;9.910;2022-10-16T04:50:44;2.10;;;1.02;;
22628;SDS011;11481;53.694;9.910;2022-10-16T04:53:16;2.85;;;1.02;;
22628;SDS011;11481;53.694;9.910;2022-10-16T04:55:43;1.88;;;0.90;;
22628;SDS011;11481;53.694;9.910;2022-10-16T04:58:10;1.52;;;0.82;;
22628;SDS011;11481;53.694;9.910;2022-10-16T05:00:36;1.55;;;0.75;;
22628;SDS011;11481;53.694;9.910;2022-10-16T05:03:04;5.15;;;1.00;;
22628;SDS011;11481;53.694;9.910;2022-10-16T05:05:35;10.30;;;1.05;;
22628;SDS011;11481;53.694;9.910;2022-10-16T05:08:02;1.67;;;0.98;;
22628;SDS011;11481;53.694;9.910;2022-10-16T05:10:30;4.55;;;1.00;;
22628;SDS011;11481;53.694;9.910;2022-10-16T05:12:56;1.73;;;0.85;;
22628;SDS011;11481;53.694;9.910;2022-10-16T05:15:23;2.08;;;1.10;;
22628;SDS011;11481;53.694;9.910;2022-10-16T05:17:54;2.10;;;1.00;;
22628;SDS011;11481;53.694;9.910;2022-10-16T05:20:23;3.13;;;1.20;;
22628;SDS011;11481;53.694;9.910;2022-10-16T05:22:50;2.85;;;1.40;;
22628;SDS011;11481;53.694;9.910;2022-10-16T05:25:16;2.42;;;1.08;;
22628;SDS011;11481;53.694;9.910;2022-10-16T05:27:43;2.47;;;1.30;;
22628;SDS011;11481;53.694;9.910;2022-10-16T05:30:13;6.60;;;1.75;;
22628;SDS011;11481;53.694;9.910;2022-10-16T05:32:39;3.63;;;1.25;;
22628;SDS011;11481;53.694;9.910;2022-10-16T05:35:06;6.85;;;1.40;;
22628;SDS011;11481;53.694;9.910;2022-10-16T05:37:37;4.35;;;1.65;;
22628;SDS011;11481;53.694;9.910;2022-10-16T05:40:04;4.50;;;1.60;;
22628;SDS011;11481;53.694;9.910;2022-10-16T05:42:31;2.78;;;1.55;;
22628;SDS011;11481;53.694;9.910;2022-10-16T05:44:58;5.38;;;1.83;;
22628;SDS011;11481;53.694;9.910;2022-10-16T05:47:24;3.13;;;1.88;;
22628;SDS011;11481;53.694;9.910;2022-10-16T05:49:51;4.53;;;1.92;;
22628;SDS011;11481;53.694;9.910;2022-10-16T05:52:18;3.80;;;1.60;;
22628;SDS011;11481;53.694;9.910;2022-10-16T05:55:08;3.53;;;1.35;;
22628;SDS011;11481;53.694;9.910;2022-10-16T05:57:35;3.60;;;1.58;;
22628;SDS011;11481;53.694;9.910;2022-10-16T06:00:03;2.83;;;1.60;;
22628;SDS011;11481;53.694;9.910;2022-10-16T06:02:30;7.75;;;2.08;;
22628;SDS011;11481;53.694;9.910;2022-10-16T06:04:57;5.47;;;2.13;;
22628;SDS011;11481;53.694;9.910;2022-10-16T06:07:23;3.03;;;1.27;;
22628;SDS011;11481;53.694;9.910;2022-10-16T06:09:51;3.80;;;1.40;;
22628;SDS011;11481;53.694;9.910;2022-10-16T06:12:18;6.85;;;1.63;;
22628;SDS011;11481;53.694;9.910;2022-10-16T06:14:45;4.70;;;1.70;;
22628;SDS011;11481;53.694;9.910;2022-10-16T06:17:15;4.40;;;1.77;;
22628;SDS011;11481;53.694;9.910;2022-10-16T06:19:42;3.63;;;1.70;;
22628;SDS011;11481;53.694;9.910;2022-10-16T06:22:08;2.85;;;1.58;;
22628;SDS011;11481;53.694;9.910;2022-10-16T06:24:35;4.78;;;1.60;;
22628;SDS011;11481;53.694;9.910;2022-10-16T06:27:03;8.13;;;2.22;;
22628;SDS011;11481;53.694;9.910;2022-10-16T06:29:30;3.50;;;1.60;;
22628;SDS011;11481;53.694;9.910;2022-10-16T06:31:57;16.15;;;2.05;;
22628;SDS011;11481;53.694;9.910;2022-10-16T06:34:23;3.33;;;1.67;;
22628;SDS011;11481;53.694;9.910;2022-10-16T06:36:50;6.22;;;1.35;;
22628;SDS011;11481;53.694;9.910;2022-10-16T06:39:16;3.55;;;1.52;;
22628;SDS011;11481;53.694;9.910;2022-10-16T06:41:43;4.22;;;1.50;;
22628;SDS011;11481;53.694;9.910;2022-10-16T06:44:10;4.68;;;1.85;;
22628;SDS011;11481;53.694;9.910;2022-10-16T06:46:36;4.47;;;1.85;;
22628;SDS011;11481;53.694;9.910;2022-10-16T06:49:03;6.47;;;1.88;;
22628;SDS011;11481;53.694;9.910;2022-10-16T06:51:30;5.72;;;1.65;;
22628;SDS011;11481;53.694;9.910;2022-10-16T06:53:58;3.05;;;1.42;;
22628;SDS011;11481;53.694;9.910;2022-10-16T06:56:30;3.17;;;1.75;;
22628;SDS011;11481;53.694;9.910;2022-10-16T06:58:58;5.88;;;1.83;;
22628;SDS011;11481;53.694;9.910;2022-10-16T07:01:25;5.40;;;1.73;;
22628;SDS011;11481;53.694;9.910;2022-10-16T07:03:52;6.80;;;2.20;;
22628;SDS011;11481;53.694;9.910;2022-10-16T07:06:21;5.50;;;2.10;;
22628;SDS011;11481;53.694;9.910;2022-10-16T07:08:49;7.68;;;1.80;;
22628;SDS011;11481;53.694;9.910;2022-10-16T07:11:17;5.72;;;2.47;;
22628;SDS011;11481;53.694;9.910;2022-10-16T07:13:46;3.40;;;1.83;;
22628;SDS011;11481;53.694;9.910;2022-10-16T07:16:22;4.20;;;1.77;;
22628;SDS011;11481;53.694;9.910;2022-10-16T07:18:50;2.00;;;1.25;;
22628;SDS011;11481;53.694;9.910;2022-10-16T07:21:21;4.13;;;2.05;;
22628;SDS011;11481;53.694;9.910;2022-10-16T07:23:52;8.38;;;2.38;;
22628;SDS011;11481;53.694;9.910;2022-10-16T07:26:19;6.80;;;2.60;;
22628;SDS011;11481;53.694;9.910;2022-10-16T07:28:48;5.55;;;2.00;;
22628;SDS011;11481;53.694;9.910;2022-10-16T07:31:16;5.13;;;1.50;;
22628;SDS011;11481;53.694;9.910;2022-10-16T07:33:44;6.15;;;2.22;;
22628;SDS011;11481;53.694;9.910;2022-10-16T07:36:14;6.18;;;2.10;;
22628;SDS011;11481;53.694;9.910;2022-10-16T07:38:43;4.55;;;2.03;;
22628;SDS011;11481;53.694;9.910;2022-10-16T07:41:11;5.60;;;2.38;;
22628;SDS011;11481;53.694;9.910;2022-10-16T07:43:39;4.15;;;1.70;;
22628;SDS011;11481;53.694;9.910;2022-10-16T07:46:06;6.95;;;2.28;;
22628;SDS011;11481;53.694;9.910;2022-10-16T07:48:34;7.93;;;2.25;;
22628;SDS011;11481;53.694;9.910;2022-10-16T07:51:01;4.13;;;2.08;;
22628;SDS011;11481;53.694;9.910;2022-10-16T07:53:29;4.97;;;1.92;;
22628;SDS011;11481;53.694;9.910;2022-10-16T07:56:03;5.10;;;2.15;;
22628;SDS011;11481;53.694;9.910;2022-10-16T07:58:32;5.03;;;2.28;;
22628;SDS011;11481;53.694;9.910;2022-10-16T08:01:03;4.53;;;1.88;;
22628;SDS011;11481;53.694;9.910;2022-10-16T08:03:30;4.85;;;2.10;;
22628;SDS011;11481;53.694;9.910;2022-10-16T08:05:57;7.28;;;2.15;;
22628;SDS011;11481;53.694;9.910;2022-10-16T08:08:26;9.02;;;2.60;;
22628;SDS011;11481;53.694;9.910;2022-10-16T08:10:55;6.68;;;2.83;;
22628;SDS011;11481;53.694;9.910;2022-10-16T08:13:21;5.60;;;2.08;;
22628;SDS011;11481;53.694;9.910;2022-10-16T08:15:48;3.95;;;1.90;;
22628;SDS011;11481;53.694;9.910;2022-10-16T08:18:16;10.93;;;2.15;;
22628;SDS011;11481;53.694;9.910;2022-10-16T08:20:42;4.03;;;2.10;;
22628;SDS011;11481;53.694;9.910;2022-10-16T08:23:09;8.30;;;2.15;;
22628;SDS011;11481;53.694;9.910;2022-10-16T08:25:37;3.75;;;2.05;;
22628;SDS011;11481;53.694;9.910;2022-10-16T08:28:05;4.30;;;2.42;;
22628;SDS011;11481;53.694;9.910;2022-10-16T08:30:33;3.80;;;2.20;;
22628;SDS011;11481;53.694;9.910;2022-10-16T08:33:00;3.92;;;1.95;;
22628;SDS011;11481;53.694;9.910;2022-10-16T08:35:27;4.72;;;2.05;;
22628;SDS011;11481;53.694;9.910;2022-10-16T08:37:54;4.70;;;1.75;;
22628;SDS011;11481;53.694;9.910;2022-10-16T08:40:22;3.30;;;1.85;;
22628;SDS011;11481;53.694;9.910;2022-10-16T08:42:58;4.90;;;2.17;;
22628;SDS011;11481;53.694;9.910;2022-10-16T08:45:34;4.60;;;2.10;;
22628;SDS011;11481;53.694;9.910;2022-10-16T08:50:43;4.10;;;2.08;;
22628;SDS011;11481;53.694;9.910;2022-10-16T08:53:14;7.43;;;1.85;;
22628;SDS011;11481;53.694;9.910;2022-10-16T08:56:02;6.20;;;2.30;;
22628;SDS011;11481;53.694;9.910;2022-10-16T08:58:29;4.97;;;1.73;;
22628;SDS011;11481;53.694;9.910;2022-10-16T09:00:57;3.35;;;1.70;;
22628;SDS011;11481;53.694;9.910;2022-10-16T09:03:46;4.22;;;1.55;;
22628;SDS011;11481;53.694;9.910;2022-10-16T09:06:30;5.78;;;2.10;;
22628;SDS011;11481;53.694;9.910;2022-10-16T09:12:37;3.00;;;1.58;;
22628;SDS011;11481;53.694;9.910;2022-10-16T09:20:51;3.50;;;1.30;;
22628;SDS011;11481;53.694;9.910;2022-10-16T09:23:36;2.75;;;1.20;;
22628;SDS011;11481;53.694;9.910;2022-10-16T09:26:03;2.70;;;1.33;;
22628;SDS011;11481;53.694;9.910;2022-10-16T09:28:35;3.13;;;1.17;;
22628;SDS011;11481;53.694;9.910;2022-10-16T09:31:02;3.78;;;1.30;;
22628;SDS011;11481;53.694;9.910;2022-10-16T09:33:30;6.40;;;1.38;;
22628;SDS011;11481;53.694;9.910;2022-10-16T09:36:02;4.10;;;1.25;;
22628;SDS011;11481;53.694;9.910;2022-10-16T09:38:32;3.85;;;1.60;;
22628;SDS011;11481;53.694;9.910;2022-10-16T09:41:00;4.93;;;1.15;;
22628;SDS011;11481;53.694;9.910;2022-10-16T09:43:38;5.93;;;1.50;;
22628;SDS011;11481;53.694;9.910;2022-10-16T09:48:55;2.15;;;1.02;;
22628;SDS011;11481;53.694;9.910;2022-10-16T09:51:27;1.85;;;1.00;;
22628;SDS011;11481;53.694;9.910;2022-10-16T09:53:59;6.20;;;1.23;;
22628;SDS011;11481;53.694;9.910;2022-10-16T09:56:36;2.40;;;1.30;;
22628;SDS011;11481;53.694;9.910;2022-10-16T10:01:46;2.70;;;1.13;;
22628;SDS011;11481;53.694;9.910;2022-10-16T10:04:14;3.50;;;1.25;;
22628;SDS011;11481;53.694;9.910;2022-10-16T10:06:45;3.55;;;1.00;;
22628;SDS011;11481;53.694;9.910;2022-10-16T10:12:02;2.53;;;1.08;;
22628;SDS011;11481;53.694;9.910;2022-10-16T10:14:37;1.95;;;0.80;;
22628;SDS011;11481;53.694;9.910;2022-10-16T10:27:42;3.13;;;1.02;;
22628;SDS011;11481;53.694;9.910;2022-10-16T10:30:26;2.88;;;1.02;;
22628;SDS011;11481;53.694;9.910;2022-10-16T10:38:46;1.85;;;0.60;;
22628;SDS011;11481;53.694;9.910;2022-10-16T10:41:34;1.80;;;0.70;;
22628;SDS011;11481;53.694;9.910;2022-10-16T10:46:53;5.63;;;1.58;;
22628;SDS011;11481;53.694;9.910;2022-10-16T10:49:47;3.00;;;1.00;;
22628;SDS011;11481;53.694;9.910;2022-10-16T10:52:34;5.10;;;1.30;;
22628;SDS011;11481;53.694;9.910;2022-10-16T10:58:04;4.82;;;0.65;;
22628;SDS011;11481;53.694;9.910;2022-10-16T11:06:24;7.88;;;1.10;;
22628;SDS011;11481;53.694;9.910;2022-10-16T11:09:03;1.67;;;0.70;;
22628;SDS011;11481;53.694;9.910;2022-10-16T11:11:41;1.83;;;0.63;;
22628;SDS011;11481;53.694;9.910;2022-10-16T11:14:34;2.50;;;0.80;;
22628;SDS011;11481;53.694;9.910;2022-10-16T11:17:22;1.52;;;0.90;;
22628;SDS011;11481;53.694;9.910;2022-10-16T11:19:56;3.45;;;0.90;;
22628;SDS011;11481;53.694;9.910;2022-10-16T11:22:50;6.38;;;1.08;;
22628;SDS011;11481;53.694;9.910;2022-10-16T11:25:21;0.65;;;0.30;;
22628;SDS011;11481;53.694;9.910;2022-10-16T11:28:05;2.20;;;0.75;;
22628;SDS011;11481;53.694;9.910;2022-10-16T11:30:44;3.33;;;0.45;;
22628;SDS011;11481;53.694;9.910;2022-10-16T11:33:25;4.53;;;1.00;;
22628;SDS011;11481;53.694;9.910;2022-10-16T11:39:00;7.72;;;0.80;;
22628;SDS011;11481;53.694;9.910;2022-10-16T11:41:39;3.95;;;0.75;;
22628;SDS011;11481;53.694;9.910;2022-10-16T11:53:20;3.22;;;0.70;;
22628;SDS011;11481;53.694;9.910;2022-10-16T11:56:01;2.28;;;0.90;;
22628;SDS011;11481;53.694;9.910;2022-10-16T12:09:36;0.63;;;0.43;;
22628;SDS011;11481;53.694;9.910;2022-10-16T12:12:22;0.75;;;0.43;;
22628;SDS011;11481;53.694;9.910;2022-10-16T12:18:23;3.20;;;1.02;;
22628;SDS011;11481;53.694;9.910;2022-10-16T12:20:57;0.90;;;0.55;;
22628;SDS011;11481;53.694;9.910;2022-10-16T12:24:18;0.88;;;0.50;;
22628;SDS011;11481;53.694;9.910;2022-10-16T12:26:32;2.15;;;0.55;;
22628;SDS011;11481;53.694;9.910;2022-10-16T12:29:14;2.10;;;1.25;;
22628;SDS011;11481;53.694;9.910;2022-10-16T12:31:50;2.72;;;0.75;;
22628;SDS011;11481;53.694;9.910;2022-10-16T12:34:32;3.35;;;0.68;;
22628;SDS011;11481;53.694;9.910;2022-10-16T12:39:41;2.45;;;0.50;;
22628;SDS011;11481;53.694;9.910;2022-10-16T12:42:21;2.65;;;0.50;;
22628;SDS011;11481;53.694;9.910;2022-10-16T12:44:52;3.00;;;0.50;;
22628;SDS011;11481;53.694;9.910;2022-10-16T12:49:58;2.08;;;0.57;;
22628;SDS011;11481;53.694;9.910;2022-10-16T12:52:31;0.80;;;0.25;;
22628;SDS011;11481;53.694;9.910;2022-10-16T12:55:01;4.22;;;0.70;;
22628;SDS011;11481;53.694;9.910;2022-10-16T12:57:41;2.17;;;0.30;;
22628;SDS011;11481;53.694;9.910;2022-10-16T13:00:32;1.55;;;0.52;;
22628;SDS011;11481;53.694;9.910;2022-10-16T13:08:50;6.10;;;0.90;;
22628;SDS011;11481;53.694;9.910;2022-10-16T13:20:46;0.68;;;0.30;;
22628;SDS011;11481;53.694;9.910;2022-10-16T13:23:53;3.75;;;0.57;;
22628;SDS011;11481;53.694;9.910;2022-10-16T13:29:11;1.85;;;0.40;;
22628;SDS011;11481;53.694;9.910;2022-10-16T13:31:39;3.08;;;0.60;;
22628;SDS011;11481;53.694;9.910;2022-10-16T13:34:19;2.15;;;0.40;;
22628;SDS011;11481;53.694;9.910;2022-10-16T13:36:49;3.22;;;0.88;;
22628;SDS011;11481;53.694;9.910;2022-10-16T13:39:27;4.30;;;0.60;;
22628;SDS011;11481;53.694;9.910;2022-10-16T13:42:06;1.20;;;0.43;;
22628;SDS011;11481;53.694;9.910;2022-10-16T13:44:54;2.42;;;0.80;;
22628;SDS011;11481;53.694;9.910;2022-10-16T13:47:22;1.30;;;0.40;;
22628;SDS011;11481;53.694;9.910;2022-10-16T13:50:00;4.55;;;1.02;;
22628;SDS011;11481;53.694;9.910;2022-10-16T13:52:32;1.67;;;0.45;;
22628;SDS011;11481;53.694;9.910;2022-10-16T13:54:59;2.33;;;0.30;;
22628;SDS011;11481;53.694;9.910;2022-10-16T13:57:27;3.50;;;0.63;;
22628;SDS011;11481;53.694;9.910;2022-10-16T13:59:54;0.93;;;0.40;;
22628;SDS011;11481;53.694;9.910;2022-10-16T14:02:42;4.28;;;0.82;;
22628;SDS011;11481;53.694;9.910;2022-10-16T14:05:08;1.20;;;0.40;;
22628;SDS011;11481;53.694;9.910;2022-10-16T14:07:38;1.35;;;0.57;;
22628;SDS011;11481;53.694;9.910;2022-10-16T14:10:06;2.97;;;0.47;;
22628;SDS011;11481;53.694;9.910;2022-10-16T14:12:44;2.40;;;0.52;;
22628;SDS011;11481;53.694;9.910;2022-10-16T14:15:20;3.22;;;0.65;;
22628;SDS011;11481;53.694;9.910;2022-10-16T14:17:48;1.80;;;0.70;;
22628;SDS011;11481;53.694;9.910;2022-10-16T14:20:17;3.08;;;0.55;;
22628;SDS011;11481;53.694;9.910;2022-10-16T14:22:44;2.50;;;0.60;;
22628;SDS011;11481;53.694;9.910;2022-10-16T14:25:46;8.13;;;0.88;;
22628;SDS011;11481;53.694;9.910;2022-10-16T14:30:54;3.15;;;0.55;;
22628;SDS011;11481;53.694;9.910;2022-10-16T14:33:31;1.95;;;0.38;;
22628;SDS011;11481;53.694;9.910;2022-10-16T14:38:35;4.68;;;0.47;;
22628;SDS011;11481;53.694;9.910;2022-10-16T14:41:05;1.88;;;0.40;;
22628;SDS011;11481;53.694;9.910;2022-10-16T14:43:33;5.90;;;1.17;;
22628;SDS011;11481;53.694;9.910;2022-10-16T14:46:06;1.25;;;0.60;;
22628;SDS011;11481;53.694;9.910;2022-10-16T14:48:44;1.98;;;0.40;;
22628;SDS011;11481;53.694;9.910;2022-10-16T14:51:16;2.50;;;0.50;;
22628;SDS011;11481;53.694;9.910;2022-10-16T14:53:45;1.38;;;0.52;;
22628;SDS011;11481;53.694;9.910;2022-10-16T14:56:18;2.83;;;0.63;;
22628;SDS011;11481;53.694;9.910;2022-10-16T14:58:50;6.80;;;1.15;;
22628;SDS011;11481;53.694;9.910;2022-10-16T15:01:18;2.40;;;0.63;;
22628;SDS011;11481;53.694;9.910;2022-10-16T15:03:44;1.98;;;0.60;;
22628;SDS011;11481;53.694;9.910;2022-10-16T15:06:11;2.80;;;0.52;;
22628;SDS011;11481;53.694;9.910;2022-10-16T15:08:40;2.40;;;0.30;;
22628;SDS011;11481;53.694;9.910;2022-10-16T15:11:16;6.32;;;0.95;;
22628;SDS011;11481;53.694;9.910;2022-10-16T15:13:45;2.75;;;0.73;;
22628;SDS011;11481;53.694;9.910;2022-10-16T15:16:13;1.35;;;0.52;;
22628;SDS011;11481;53.694;9.910;2022-10-16T15:18:42;2.47;;;0.45;;
22628;SDS011;11481;53.694;9.910;2022-10-16T15:21:10;2.95;;;0.60;;
22628;SDS011;11481;53.694;9.910;2022-10-16T15:23:50;2.80;;;0.43;;
22628;SDS011;11481;53.694;9.910;2022-10-16T15:26:17;5.32;;;1.15;;
22628;SDS011;11481;53.694;9.910;2022-10-16T15:28:43;1.60;;;0.75;;
22628;SDS011;11481;53.694;9.910;2022-10-16T15:31:10;4.20;;;0.70;;
22628;SDS011;11481;53.694;9.910;2022-10-16T15:33:37;1.95;;;0.35;;
22628;SDS011;11481;53.694;9.910;2022-10-16T15:36:05;3.08;;;0.57;;
22628;SDS011;11481;53.694;9.910;2022-10-16T15:38:32;3.70;;;0.55;;
22628;SDS011;11481;53.694;9.910;2022-10-16T15:41:03;3.53;;;0.95;;
22628;SDS011;11481;53.694;9.910;2022-10-16T15:43:30;4.28;;;0.93;;
22628;SDS011;11481;53.694;9.910;2022-10-16T15:46:01;3.00;;;0.50;;
22628;SDS011;11481;53.694;9.910;2022-10-16T15:48:29;6.57;;;1.63;;
22628;SDS011;11481;53.694;9.910;2022-10-16T15:50:56;7.88;;;2.65;;
22628;SDS011;11481;53.694;9.910;2022-10-16T15:53:23;6.38;;;1.23;;
22628;SDS011;11481;53.694;9.910;2022-10-16T15:55:50;6.50;;;2.53;;
22628;SDS011;11481;53.694;9.910;2022-10-16T15:58:17;4.15;;;1.40;;
22628;SDS011;11481;53.694;9.910;2022-10-16T16:00:43;3.83;;;1.23;;
22628;SDS011;11481;53.694;9.910;2022-10-16T16:03:10;3.75;;;0.70;;
22628;SDS011;11481;53.694;9.910;2022-10-16T16:05:37;2.08;;;0.98;;
22628;SDS011;11481;53.694;9.910;2022-10-16T16:08:11;4.28;;;1.45;;
22628;SDS011;11481;53.694;9.910;2022-10-16T16:10:38;4.75;;;1.98;;
22628;SDS011;11481;53.694;9.910;2022-10-16T16:13:04;3.42;;;1.17;;
22628;SDS011;11481;53.694;9.910;2022-10-16T16:15:31;2.00;;;1.17;;
22628;SDS011;11481;53.694;9.910;2022-10-16T16:17:57;5.97;;;1.15;;
22628;SDS011;11481;53.694;9.910;2022-10-16T16:20:24;9.60;;;1.15;;
22628;SDS011;11481;53.694;9.910;2022-10-16T16:22:51;2.25;;;0.90;;
22628;SDS011;11481;53.694;9.910;2022-10-16T16:25:18;1.08;;;0.57;;
22628;SDS011;11481;53.694;9.910;2022-10-16T16:27:44;1.67;;;0.60;;
22628;SDS011;11481;53.694;9.910;2022-10-16T16:30:11;3.10;;;0.80;;
22628;SDS011;11481;53.694;9.910;2022-10-16T16:32:44;3.55;;;1.00;;
22628;SDS011;11481;53.694;9.910;2022-10-16T16:35:11;2.92;;;0.80;;
22628;SDS011;11481;53.694;9.910;2022-10-16T16:37:38;1.67;;;0.60;;
22628;SDS011;11481;53.694;9.910;2022-10-16T16:40:04;1.55;;;0.82;;
22628;SDS011;11481;53.694;9.910;2022-10-16T16:42:31;4.05;;;0.75;;
22628;SDS011;11481;53.694;9.910;2022-10-16T16:44:58;4.18;;;1.15;;
22628;SDS011;11481;53.694;9.910;2022-10-16T16:47:25;3.53;;;0.70;;
22628;SDS011;11481;53.694;9.910;2022-10-16T16:49:53;1.70;;;0.75;;
22628;SDS011;11481;53.694;9.910;2022-10-16T16:52:19;4.63;;;1.70;;
22628;SDS011;11481;53.694;9.910;2022-10-16T16:54:47;10.75;;;3.83;;
22628;SDS011;11481;53.694;9.910;2022-10-16T16:57:18;11.65;;;4.43;;
22628;SDS011;11481;53.694;9.910;2022-10-16T16:59:45;9.93;;;3.58;;
22628;SDS011;11481;53.694;9.910;2022-10-16T17:02:12;5.72;;;2.08;;
22628;SDS011;11481;53.694;9.910;2022-10-16T17:04:39;4.63;;;1.70;;
22628;SDS011;11481;53.694;9.910;2022-10-16T17:07:06;10.60;;;1.60;;